createdAt,value
2022-11-29T00:01:00.088Z,1.83
2022-11-29T00:03:27.990Z,1.77
2022-11-29T00:05:55.730Z,1.50
2022-11-29T00:08:23.897Z,1.77
2022-11-29T00:10:51.439Z,1.90
2022-11-29T00:13:19.129Z,1.83
2022-11-29T00:15:46.525Z,1.87
2022-11-29T00:18:13.958Z,1.53
2022-11-29T00:20:41.446Z,1.80
2022-11-29T00:23:08.846Z,1.53
2022-11-29T00:25:36.159Z,1.63
2022-11-29T00:28:03.852Z,1.80
2022-11-29T00:30:31.350Z,1.57
2022-11-29T00:32:58.922Z,1.70
2022-11-29T00:35:26.439Z,1.73
2022-11-29T00:37:53.724Z,1.70
2022-11-29T00:40:21.009Z,1.70
2022-11-29T00:42:48.402Z,1.93
2022-11-29T00:45:15.801Z,1.73
2022-11-29T00:47:43.242Z,1.50
2022-11-29T00:50:12.121Z,1.77
2022-11-29T00:52:39.586Z,1.93
2022-11-29T00:55:07.901Z,1.43
2022-11-29T00:57:35.202Z,1.80
2022-11-29T01:00:02.703Z,1.57
2022-11-29T01:02:30.191Z,1.70
2022-11-29T01:04:57.632Z,1.60
2022-11-29T01:07:25.337Z,1.60
2022-11-29T01:09:55.683Z,2.73
2022-11-29T01:12:23.005Z,3.00
2022-11-29T01:14:50.481Z,2.00
2022-11-29T01:17:17.802Z,1.57
2022-11-29T01:19:50.470Z,1.83
2022-11-29T01:22:18.720Z,1.50
2022-11-29T01:24:46.172Z,1.93
2022-11-29T01:27:13.832Z,1.67
2022-11-29T01:29:41.217Z,1.70
2022-11-29T01:32:08.801Z,1.87
2022-11-29T01:34:36.245Z,1.80
2022-11-29T01:37:03.525Z,1.70
2022-11-29T01:39:30.935Z,1.60
2022-11-29T01:42:00.204Z,1.70
2022-11-29T01:44:28.524Z,1.37
2022-11-29T01:46:56.642Z,1.40
2022-11-29T01:49:23.882Z,1.73
2022-11-29T01:51:56.498Z,1.90
2022-11-29T01:54:23.919Z,1.40
2022-11-29T01:56:52.304Z,1.80
2022-11-29T01:59:21.318Z,1.50
2022-11-29T02:01:48.888Z,1.60
2022-11-29T02:04:17.040Z,1.40
2022-11-29T02:06:44.524Z,1.60
2022-11-29T02:09:22.315Z,1.33
2022-11-29T02:11:49.759Z,1.20
2022-11-29T02:14:24.864Z,1.60
2022-11-29T02:16:56.727Z,1.77
2022-11-29T02:19:24.201Z,1.70
2022-11-29T02:21:58.083Z,1.63
2022-11-29T02:24:44.279Z,1.60
2022-11-29T02:27:26.762Z,2.00
2022-11-29T02:30:06.524Z,1.50
2022-11-29T02:32:36.853Z,1.50
2022-11-29T02:35:22.969Z,1.83
2022-11-29T02:38:09.009Z,1.20
2022-11-29T02:40:50.119Z,1.70
2022-11-29T02:43:35.886Z,1.90
2022-11-29T02:46:03.292Z,1.70
2022-11-29T02:48:30.785Z,2.00
2022-11-29T02:51:01.374Z,1.50
2022-11-29T02:53:39.120Z,1.77
2022-11-29T02:56:07.242Z,1.40
2022-11-29T02:58:53.370Z,1.63
2022-11-29T03:01:41.258Z,1.30
2022-11-29T03:04:38.189Z,1.40
2022-11-29T03:07:12.847Z,1.30
2022-11-29T03:09:45.769Z,1.40
2022-11-29T03:12:31.764Z,1.43
2022-11-29T03:15:01.726Z,1.53
2022-11-29T03:17:33.190Z,1.50
2022-11-29T03:20:00.480Z,2.80
2022-11-29T03:22:33.486Z,1.70
2022-11-29T03:25:07.399Z,1.70
2022-11-29T03:27:34.641Z,1.37
2022-11-29T03:30:04.599Z,1.60
2022-11-29T03:32:31.884Z,1.70
2022-11-29T03:35:10.919Z,1.10
2022-11-29T03:37:49.079Z,1.77
2022-11-29T03:40:19.238Z,1.73
2022-11-29T03:42:53.240Z,1.47
2022-11-29T03:45:26.598Z,1.60
2022-11-29T03:48:10.321Z,1.77
2022-11-29T03:50:39.799Z,1.90
2022-11-29T03:53:25.964Z,1.43
2022-11-29T03:55:59.962Z,1.83
2022-11-29T03:58:27.279Z,1.63
2022-11-29T04:01:06.763Z,1.63
2022-11-29T04:04:00.599Z,1.70
2022-11-29T04:06:39.999Z,2.00
2022-11-29T04:09:10.198Z,1.70
2022-11-29T04:11:59.256Z,1.77
2022-11-29T04:14:29.719Z,1.57
2022-11-29T04:16:57.039Z,1.33
2022-11-29T04:19:39.638Z,1.63
2022-11-29T04:22:22.279Z,1.50
2022-11-29T04:24:52.780Z,1.33
2022-11-29T04:27:46.540Z,1.50
2022-11-29T04:30:20.219Z,1.33
2022-11-29T04:32:50.599Z,1.73
2022-11-29T04:35:30.998Z,1.50
2022-11-29T04:38:15.958Z,1.93
2022-11-29T04:41:01.718Z,1.73
2022-11-29T04:43:47.521Z,1.60
2022-11-29T04:46:35.115Z,1.47
2022-11-29T04:49:02.724Z,1.80
2022-11-29T04:51:30.038Z,2.20
2022-11-29T04:54:04.878Z,1.90
2022-11-29T04:56:37.998Z,2.20
2022-11-29T04:59:08.760Z,1.80
2022-11-29T05:01:47.615Z,2.40
2022-11-29T05:04:14.998Z,2.27
2022-11-29T05:07:01.600Z,2.33
2022-11-29T05:09:29.239Z,2.30
2022-11-29T05:12:15.359Z,2.60
2022-11-29T05:15:01.278Z,2.60
2022-11-29T05:17:34.199Z,2.37
2022-11-29T05:20:16.924Z,2.30
2022-11-29T05:22:47.400Z,2.20
2022-11-29T05:25:17.758Z,2.40
2022-11-29T05:27:52.321Z,2.47
2022-11-29T05:30:23.519Z,3.23
2022-11-29T05:32:53.601Z,2.30
2022-11-29T05:35:39.241Z,2.70
2022-11-29T05:38:09.638Z,2.97
2022-11-29T05:40:36.958Z,2.40
2022-11-29T05:43:13.519Z,2.93
2022-11-29T05:45:53.078Z,2.57
2022-11-29T05:48:32.599Z,3.23
2022-11-29T05:50:59.959Z,3.20
2022-11-29T05:53:42.840Z,3.50
2022-11-29T05:56:16.038Z,3.53
2022-11-29T05:58:47.399Z,4.23
2022-11-29T06:01:17.536Z,3.53
2022-11-29T06:03:52.082Z,4.00
2022-11-29T06:06:25.401Z,3.97
2022-11-29T06:08:58.693Z,3.30
2022-11-29T06:11:29.760Z,3.80
2022-11-29T06:14:13.647Z,3.70
2022-11-29T06:16:44.001Z,3.73
2022-11-29T06:19:23.718Z,3.43
2022-11-29T06:21:51.160Z,3.97
2022-11-29T06:24:36.519Z,3.43
2022-11-29T06:27:06.924Z,3.33
2022-11-29T06:29:34.326Z,4.13
2022-11-29T06:32:08.478Z,3.80
2022-11-29T06:34:47.254Z,4.20
2022-11-29T06:37:29.810Z,4.13
2022-11-29T06:39:57.400Z,4.47
2022-11-29T06:42:24.839Z,3.73
2022-11-29T06:44:52.640Z,4.17
2022-11-29T06:47:31.666Z,3.47
2022-11-29T06:50:02.001Z,5.27
2022-11-29T06:52:41.202Z,4.30
2022-11-29T06:55:16.007Z,3.77
2022-11-29T06:57:49.560Z,4.67
2022-11-29T07:00:18.880Z,4.27
2022-11-29T07:02:55.319Z,3.97
2022-11-29T07:05:28.802Z,3.97
2022-11-29T07:07:57.375Z,4.20
2022-11-29T07:10:25.558Z,3.90
2022-11-29T07:12:53.121Z,4.07
2022-11-29T07:15:22.199Z,3.73
2022-11-29T07:18:04.680Z,4.07
2022-11-29T07:20:37.559Z,4.03
2022-11-29T07:23:07.904Z,3.60
2022-11-29T07:25:38.282Z,4.07
2022-11-29T07:28:05.572Z,3.80
2022-11-29T07:30:43.200Z,3.90
2022-11-29T07:33:10.561Z,3.57
2022-11-29T07:35:52.319Z,4.27
2022-11-29T07:38:38.480Z,5.83
2022-11-29T07:41:24.520Z,5.90
2022-11-29T07:44:06.042Z,5.47
2022-11-29T07:46:33.543Z,5.03
2022-11-29T07:49:01.005Z,4.90
2022-11-29T07:51:28.424Z,5.47
2022-11-29T07:53:55.805Z,4.43
2022-11-29T07:56:23.160Z,5.93
2022-11-29T07:58:50.612Z,4.80
2022-11-29T08:01:18.091Z,4.53
2022-11-29T08:03:45.522Z,5.00
2022-11-29T08:06:13.026Z,5.33
2022-11-29T08:08:43.991Z,5.13
2022-11-29T08:11:16.120Z,4.50
2022-11-29T08:13:43.648Z,4.63
2022-11-29T08:16:16.238Z,4.60
2022-11-29T08:18:43.740Z,4.13
2022-11-29T08:21:11.280Z,4.13
2022-11-29T08:23:38.688Z,5.60
2022-11-29T08:26:06.081Z,4.73
2022-11-29T08:28:33.465Z,4.77
2022-11-29T08:31:05.401Z,4.80
2022-11-29T08:33:32.681Z,5.30
2022-11-29T08:36:05.332Z,5.80
2022-11-29T08:38:32.749Z,5.03
2022-11-29T08:41:03.694Z,4.63
2022-11-29T08:43:31.521Z,5.20
2022-11-29T08:45:59.427Z,4.60
2022-11-29T08:51:12.048Z,3.87
2022-11-29T08:53:42.962Z,4.97
2022-11-29T08:56:49.501Z,5.57
2022-11-29T08:58:59.165Z,5.40
2022-11-29T09:01:26.777Z,5.20
2022-11-29T09:04:00.016Z,5.73
2022-11-29T09:06:28.323Z,5.97
2022-11-29T09:08:59.171Z,5.50
2022-11-29T09:11:27.281Z,5.00
2022-11-29T09:13:55.722Z,5.67
2022-11-29T09:16:25.407Z,5.30
2022-11-29T09:18:55.906Z,5.33
2022-11-29T09:21:26.804Z,5.00
2022-11-29T09:23:59.007Z,5.73
2022-11-29T09:26:28.115Z,5.07
2022-11-29T09:28:56.113Z,5.60
2022-11-29T09:31:23.595Z,5.50
2022-11-29T09:33:51.203Z,5.73
2022-11-29T09:36:23.723Z,5.33
2022-11-29T09:38:54.121Z,5.23
2022-11-29T09:41:29.005Z,5.33
2022-11-29T09:44:14.771Z,5.93
2022-11-29T09:46:48.128Z,6.47
2022-11-29T09:49:34.281Z,5.97
2022-11-29T09:52:04.681Z,5.63
2022-11-29T09:54:32.041Z,4.73
2022-11-29T09:56:59.681Z,5.33
2022-11-29T09:59:29.605Z,5.33
2022-11-29T10:02:06.166Z,4.43
2022-11-29T10:04:40.353Z,5.13
2022-11-29T10:07:09.671Z,5.10
2022-11-29T10:09:48.601Z,6.07
2022-11-29T10:12:15.926Z,5.47
2022-11-29T10:14:46.783Z,6.30
2022-11-29T10:17:24.163Z,6.00
2022-11-29T10:19:58.591Z,5.67
2022-11-29T10:22:29.091Z,5.20
2022-11-29T10:25:00.039Z,5.07
2022-11-29T10:27:29.805Z,6.10
2022-11-29T10:30:01.118Z,5.03
2022-11-29T10:32:30.961Z,5.23
2022-11-29T10:35:00.995Z,5.40
2022-11-29T10:37:32.909Z,5.47
2022-11-29T10:40:04.479Z,6.17
2022-11-29T10:42:52.911Z,5.60
2022-11-29T10:45:24.893Z,6.67
2022-11-29T10:47:53.322Z,6.77
2022-11-29T10:50:25.522Z,5.90
2022-11-29T10:52:59.792Z,7.33
2022-11-29T10:55:28.802Z,5.90
2022-11-29T10:58:28.617Z,6.10
2022-11-29T11:01:01.343Z,6.23
2022-11-29T11:03:28.762Z,5.93
2022-11-29T11:05:58.577Z,5.50
2022-11-29T11:08:29.200Z,5.47
2022-11-29T11:11:01.810Z,5.80
2022-11-29T11:13:31.435Z,5.90
2022-11-29T11:16:09.904Z,6.37
2022-11-29T11:18:38.039Z,6.03
2022-11-29T11:21:09.046Z,6.60
2022-11-29T11:23:42.506Z,6.23
2022-11-29T11:26:12.342Z,6.50
2022-11-29T11:28:39.753Z,6.30
2022-11-29T11:31:08.721Z,6.50
2022-11-29T11:33:40.283Z,7.63
2022-11-29T11:36:08.199Z,6.90
2022-11-29T11:38:36.519Z,6.43
2022-11-29T11:41:16.763Z,6.30
2022-11-29T11:43:50.398Z,7.10
2022-11-29T11:46:18.262Z,5.53
2022-11-29T11:48:46.847Z,6.93
2022-11-29T11:51:24.810Z,6.77
2022-11-29T11:53:55.360Z,5.67
2022-11-29T11:56:23.762Z,4.93
2022-11-29T11:58:53.087Z,5.30
2022-11-29T12:01:30.508Z,6.80
2022-11-29T12:04:07.082Z,6.73
2022-11-29T12:06:40.362Z,6.97
2022-11-29T12:09:16.642Z,6.20
2022-11-29T12:11:48.763Z,7.37
2022-11-29T12:14:22.522Z,6.63
2022-11-29T12:16:51.359Z,7.20
2022-11-29T12:19:22.401Z,5.97
2022-11-29T12:21:52.725Z,6.10
2022-11-29T12:24:24.602Z,6.13
2022-11-29T12:26:57.597Z,6.17
2022-11-29T12:29:27.746Z,6.70
2022-11-29T12:32:12.730Z,6.27
2022-11-29T12:34:59.761Z,6.20
2022-11-29T12:37:47.842Z,6.57
2022-11-29T12:40:27.287Z,6.10
2022-11-29T12:42:54.681Z,5.73
2022-11-29T12:45:31.361Z,5.47
2022-11-29T12:48:18.880Z,5.47
2022-11-29T12:50:52.042Z,5.80
2022-11-29T12:53:28.420Z,5.30
2022-11-29T12:56:14.043Z,4.80
2022-11-29T12:58:53.595Z,5.33
2022-11-29T13:01:24.154Z,4.90
2022-11-29T13:04:10.362Z,4.50
2022-11-29T13:06:45.319Z,4.60
2022-11-29T13:09:24.285Z,5.20
2022-11-29T13:12:02.456Z,5.53
2022-11-29T13:14:43.193Z,5.23
2022-11-29T13:17:29.644Z,5.77
2022-11-29T13:19:59.080Z,6.00
2022-11-29T13:22:32.725Z,5.70
2022-11-29T13:25:14.724Z,5.60
2022-11-29T13:27:44.883Z,5.47
2022-11-29T13:30:16.002Z,5.63
2022-11-29T13:32:51.163Z,5.87
2022-11-29T13:35:24.523Z,5.53
2022-11-29T13:37:55.507Z,5.47
2022-11-29T13:40:27.887Z,5.40
2022-11-29T13:42:58.126Z,5.17
2022-11-29T13:45:25.586Z,5.03
2022-11-29T13:47:59.481Z,5.43
2022-11-29T13:50:40.782Z,5.00
2022-11-29T13:53:17.121Z,4.27
2022-11-29T13:55:49.204Z,4.43
2022-11-29T13:58:18.132Z,4.80
2022-11-29T14:00:45.882Z,5.10
2022-11-29T14:03:28.931Z,4.70
2022-11-29T14:06:05.163Z,5.63
2022-11-29T14:09:10.348Z,4.73
2022-11-29T14:11:27.432Z,4.47
2022-11-29T14:14:03.681Z,5.33
2022-11-29T14:16:39.243Z,5.23
2022-11-29T14:19:32.810Z,5.60
2022-11-29T14:22:07.085Z,4.87
2022-11-29T14:24:35.482Z,4.97
2022-11-29T14:27:14.442Z,5.37
2022-11-29T14:29:54.166Z,5.60
2022-11-29T14:32:25.659Z,4.93
2022-11-29T14:34:56.031Z,5.20
2022-11-29T14:37:49.479Z,5.10
2022-11-29T14:40:21.752Z,4.60
2022-11-29T14:42:49.400Z,5.10
2022-11-29T14:45:24.686Z,5.03
2022-11-29T14:47:52.160Z,5.47
2022-11-29T14:50:34.827Z,5.27
2022-11-29T14:53:02.359Z,4.73
2022-11-29T14:55:31.945Z,4.27
2022-11-29T14:58:03.764Z,5.03
2022-11-29T15:00:35.841Z,5.27
2022-11-29T15:03:10.766Z,5.27
2022-11-29T15:05:39.606Z,5.43
2022-11-29T15:08:10.200Z,4.90
2022-11-29T15:10:40.722Z,4.97
2022-11-29T15:13:10.881Z,4.90
2022-11-29T15:15:38.361Z,5.10
2022-11-29T15:18:23.334Z,4.87
2022-11-29T15:21:03.319Z,7.27
2022-11-29T15:23:40.029Z,4.30
2022-11-29T15:26:15.235Z,4.83
2022-11-29T15:28:42.680Z,4.57
2022-11-29T15:31:12.281Z,4.40
2022-11-29T15:33:44.203Z,4.37
2022-11-29T15:36:22.038Z,4.23
2022-11-29T15:38:54.367Z,4.60
2022-11-29T15:41:23.802Z,4.63
2022-11-29T15:43:53.842Z,4.73
2022-11-29T15:46:23.082Z,4.87
2022-11-29T15:48:50.481Z,5.37
2022-11-29T15:51:22.360Z,5.37
2022-11-29T15:54:12.308Z,4.60
2022-11-29T15:56:46.002Z,5.03
2022-11-29T15:59:16.479Z,5.93
2022-11-29T16:01:45.520Z,5.90
2022-11-29T16:04:19.404Z,6.50
2022-11-29T16:06:48.559Z,5.23
2022-11-29T16:09:20.759Z,6.73
2022-11-29T16:11:49.158Z,5.67
2022-11-29T16:14:19.564Z,5.90
2022-11-29T16:16:48.211Z,6.70
2022-11-29T16:19:35.319Z,7.53
2022-11-29T16:22:23.725Z,5.83
2022-11-29T16:25:05.437Z,6.40
2022-11-29T16:27:34.407Z,6.60
2022-11-29T16:30:03.000Z,6.00
2022-11-29T16:32:31.918Z,6.10
2022-11-29T16:35:14.294Z,6.40
2022-11-29T16:37:43.003Z,6.10
2022-11-29T16:40:30.322Z,6.27
2022-11-29T16:43:03.762Z,7.03
2022-11-29T16:45:34.254Z,6.00
2022-11-29T16:48:02.962Z,5.83
2022-11-29T16:50:31.163Z,6.83
2022-11-29T16:53:18.499Z,6.80
2022-11-29T16:55:45.960Z,6.17
2022-11-29T16:58:13.400Z,6.57
2022-11-29T17:00:40.800Z,6.47
2022-11-29T17:03:10.118Z,6.73
2022-11-29T17:05:43.150Z,6.80
2022-11-29T17:08:12.839Z,6.47
2022-11-29T17:10:40.282Z,6.23
2022-11-29T17:13:13.721Z,5.87
2022-11-29T17:15:41.124Z,6.20
2022-11-29T17:18:08.439Z,6.30
2022-11-29T17:20:35.881Z,7.93
2022-11-29T17:23:03.281Z,7.23
2022-11-29T17:25:30.681Z,7.40
2022-11-29T17:27:58.200Z,7.53
2022-11-29T17:30:25.921Z,7.87
2022-11-29T17:32:53.324Z,8.13
2022-11-29T17:35:20.681Z,7.80
2022-11-29T17:37:48.040Z,7.87
2022-11-29T17:40:15.604Z,7.43
2022-11-29T17:42:42.921Z,9.07
2022-11-29T17:45:10.483Z,8.43
2022-11-29T17:47:37.879Z,9.00
2022-11-29T17:50:05.638Z,8.90
2022-11-29T17:52:33.005Z,9.20
2022-11-29T17:55:00.628Z,8.73
2022-11-29T17:57:28.041Z,8.90
2022-11-29T17:59:55.520Z,9.00
2022-11-29T18:02:22.948Z,8.90
2022-11-29T18:04:50.438Z,9.13
2022-11-29T18:07:18.467Z,8.77
2022-11-29T18:09:47.577Z,9.40
2022-11-29T18:12:15.359Z,9.33
2022-11-29T18:14:42.779Z,9.50
2022-11-29T18:17:10.265Z,9.30
2022-11-29T18:19:37.878Z,9.60
2022-11-29T18:22:05.240Z,10.30
2022-11-29T18:24:32.679Z,9.37
2022-11-29T18:27:00.135Z,8.83
2022-11-29T18:29:29.505Z,8.90
2022-11-29T18:32:00.119Z,9.17
2022-11-29T18:34:27.399Z,8.60
2022-11-29T18:36:54.679Z,8.77
2022-11-29T18:39:23.803Z,8.83
2022-11-29T18:41:51.438Z,8.83
2022-11-29T18:44:20.303Z,9.33
2022-11-29T18:46:48.079Z,9.17
2022-11-29T18:49:16.441Z,10.17
2022-11-29T18:51:45.157Z,9.20
2022-11-29T18:54:13.359Z,11.13
2022-11-29T18:56:41.161Z,10.17
2022-11-29T18:59:11.031Z,10.70
2022-11-29T19:01:41.432Z,10.43
2022-11-29T19:04:10.399Z,11.20
2022-11-29T19:06:41.403Z,9.97
2022-11-29T19:09:12.287Z,8.93
2022-11-29T19:11:40.004Z,8.93
2022-11-29T19:14:11.919Z,9.10
2022-11-29T19:16:40.444Z,10.00
2022-11-29T19:19:07.923Z,9.00
2022-11-29T19:21:35.682Z,9.87
2022-11-29T19:24:04.289Z,9.93
2022-11-29T19:26:33.600Z,9.80
2022-11-29T19:29:01.525Z,10.13
2022-11-29T19:31:29.363Z,9.27
2022-11-29T19:33:57.562Z,9.87
2022-11-29T19:36:26.323Z,8.17
2022-11-29T19:38:54.563Z,8.47
2022-11-29T19:41:23.523Z,8.40
2022-11-29T19:43:52.320Z,9.43
2022-11-29T19:46:21.385Z,8.67
2022-11-29T19:48:49.123Z,8.93
2022-11-29T19:51:17.884Z,9.27
2022-11-29T19:53:46.079Z,9.90
2022-11-29T19:56:15.361Z,10.07
2022-11-29T19:58:43.150Z,9.03
2022-11-29T20:01:14.638Z,9.60
2022-11-29T20:03:42.399Z,10.00
2022-11-29T20:06:10.441Z,9.73
2022-11-29T20:08:38.401Z,9.17
2022-11-29T20:11:10.161Z,9.67
2022-11-29T20:13:41.318Z,9.20
2022-11-29T20:16:10.059Z,9.23
2022-11-29T20:18:43.461Z,9.03
2022-11-29T20:21:14.958Z,8.87
2022-11-29T20:23:42.683Z,9.90
2022-11-29T20:26:14.710Z,10.00
2022-11-29T20:28:42.280Z,9.97
2022-11-29T20:31:10.639Z,9.43
2022-11-29T20:33:39.160Z,9.27
2022-11-29T20:36:25.282Z,9.33
2022-11-29T20:39:08.200Z,8.90
2022-11-29T20:41:46.670Z,9.63
2022-11-29T20:44:18.350Z,9.57
2022-11-29T20:46:45.933Z,8.97
2022-11-29T20:49:17.575Z,9.40
2022-11-29T20:51:55.495Z,9.43
2022-11-29T20:54:22.885Z,10.23
2022-11-29T20:56:50.361Z,9.97
2022-11-29T20:59:18.960Z,10.80
2022-11-29T21:01:46.360Z,10.70
2022-11-29T21:04:15.110Z,10.63
2022-11-29T21:06:44.045Z,10.83
2022-11-29T21:09:11.441Z,10.97
2022-11-29T21:11:38.922Z,12.30
2022-11-29T21:14:08.361Z,11.80
2022-11-29T21:16:35.802Z,10.47
2022-11-29T21:19:03.480Z,11.53
2022-11-29T21:21:49.362Z,10.63
2022-11-29T21:24:33.043Z,10.53
2022-11-29T21:27:00.840Z,10.97
2022-11-29T21:29:28.407Z,10.30
2022-11-29T21:31:56.040Z,12.63
2022-11-29T21:34:23.401Z,11.23
2022-11-29T21:36:54.961Z,11.00
2022-11-29T21:39:22.324Z,9.97
2022-11-29T21:41:49.724Z,11.67
2022-11-29T21:44:17.204Z,10.90
2022-11-29T21:46:44.714Z,12.67
2022-11-29T21:49:12.041Z,10.70
2022-11-29T21:51:39.561Z,10.80
2022-11-29T21:54:06.845Z,10.50
2022-11-29T21:56:34.325Z,10.93
2022-11-29T21:59:01.742Z,11.47
2022-11-29T22:01:29.590Z,10.83
2022-11-29T22:03:57.560Z,11.37
2022-11-29T22:06:26.370Z,10.10
2022-11-29T22:08:53.801Z,12.37
2022-11-29T22:11:31.960Z,10.87
2022-11-29T22:14:15.341Z,10.70
2022-11-29T22:16:47.400Z,11.00
2022-11-29T22:19:16.005Z,11.77
2022-11-29T22:21:44.443Z,11.57
2022-11-29T22:24:12.203Z,12.90
2022-11-29T22:26:40.034Z,10.93
2022-11-29T22:29:07.639Z,9.90
2022-11-29T22:31:36.366Z,9.60
2022-11-29T22:34:03.919Z,9.40
2022-11-29T22:36:31.270Z,12.83
2022-11-29T22:38:58.679Z,13.10
2022-11-29T22:41:26.323Z,13.77
2022-11-29T22:43:53.759Z,13.13
2022-11-29T22:46:22.811Z,12.90
2022-11-29T22:48:52.842Z,8.80
2022-11-29T22:51:21.564Z,9.70
2022-11-29T22:53:50.630Z,9.50
2022-11-29T22:56:18.450Z,9.50
2022-11-29T22:58:46.439Z,9.57
2022-11-29T23:01:15.067Z,9.63
2022-11-29T23:03:44.675Z,9.87
2022-11-29T23:06:13.441Z,9.60
2022-11-29T23:08:41.881Z,8.47
2022-11-29T23:11:11.979Z,6.77
2022-11-29T23:13:40.522Z,5.43
2022-11-29T23:16:10.130Z,5.10
2022-11-29T23:18:38.722Z,4.60
2022-11-29T23:21:10.504Z,4.30
2022-11-29T23:23:38.724Z,4.07
2022-11-29T23:26:06.882Z,3.77
2022-11-29T23:28:35.260Z,3.80
2022-11-29T23:31:02.961Z,4.13
2022-11-29T23:33:30.385Z,4.47
2022-11-29T23:36:05.560Z,3.67
2022-11-29T23:38:33.320Z,3.50
2022-11-29T23:41:00.725Z,3.57
2022-11-29T23:43:31.852Z,3.33
2022-11-29T23:46:01.004Z,4.03
2022-11-29T23:48:28.401Z,3.90
2022-11-29T23:50:55.721Z,4.03
2022-11-29T23:53:23.160Z,3.80
2022-11-29T23:56:10.800Z,3.60
2022-11-29T23:58:38.284Z,3.57
